createdAt,value
2023-06-22T00:00:40.478Z,100552.88
2023-06-22T00:03:09.152Z,100548.59
2023-06-22T00:05:37.624Z,100545.91
2023-06-22T00:08:07.185Z,100540.50
2023-06-22T00:10:36.320Z,100541.28
2023-06-22T00:13:06.429Z,100547.50
2023-06-22T00:15:34.884Z,100545.91
2023-06-22T00:18:03.850Z,100547.50
2023-06-22T00:20:32.576Z,100554.53
2023-06-22T00:23:02.328Z,100562.34
2023-06-22T00:25:30.788Z,100554.97
2023-06-22T00:27:59.143Z,100555.38
2023-06-22T00:30:29.305Z,100551.06
2023-06-22T00:32:57.841Z,100555.75
2023-06-22T00:35:30.544Z,100554.94
2023-06-22T00:38:02.099Z,100559.19
2023-06-22T00:40:31.124Z,100557.16
2023-06-22T00:42:59.907Z,100558.34
2023-06-22T00:45:29.853Z,100559.00
2023-06-22T00:47:59.875Z,100566.03
2023-06-22T00:50:35.109Z,100557.84
2023-06-22T00:53:09.955Z,100563.72
2023-06-22T00:55:40.058Z,100552.88
2023-06-22T00:58:11.638Z,100561.50
2023-06-22T01:00:42.953Z,100565.84
2023-06-22T01:03:11.948Z,100559.97
2023-06-22T01:05:41.516Z,100557.25
2023-06-22T01:08:20.697Z,100560.75
2023-06-22T01:10:54.127Z,100559.16
2023-06-22T01:13:31.981Z,100557.84
2023-06-22T01:16:08.110Z,100557.09
2023-06-22T01:18:38.964Z,100555.44
2023-06-22T01:21:10.525Z,100549.19
2023-06-22T01:23:54.673Z,100555.44
2023-06-22T01:26:40.350Z,100560.88
2023-06-22T01:29:15.341Z,100554.59
2023-06-22T01:31:44.832Z,100549.50
2023-06-22T01:34:18.107Z,100543.22
2023-06-22T01:36:47.846Z,100545.59
2023-06-22T01:39:17.358Z,100544.81
2023-06-22T01:41:48.927Z,100545.56
2023-06-22T01:44:19.276Z,100549.44
2023-06-22T01:46:48.541Z,100541.63
2023-06-22T01:49:17.771Z,100558.38
2023-06-22T01:51:46.281Z,100563.81
2023-06-22T01:54:14.966Z,100555.66
2023-06-22T01:56:43.436Z,100556.72
2023-06-22T01:59:20.275Z,100555.56
2023-06-22T02:01:57.333Z,100550.78
2023-06-22T02:04:29.690Z,100553.94
2023-06-22T02:07:00.807Z,100549.56
2023-06-22T02:09:33.087Z,100558.56
2023-06-22T02:12:04.780Z,100561.94
2023-06-22T02:14:33.861Z,100571.25
2023-06-22T02:17:03.982Z,100555.63
2023-06-22T02:19:34.527Z,100571.63
2023-06-22T02:22:03.044Z,100573.22
2023-06-22T02:24:33.132Z,100571.34
2023-06-22T02:27:02.147Z,100580.72
2023-06-22T02:29:31.392Z,100581.13
2023-06-22T02:31:59.774Z,100578.06
2023-06-22T02:34:29.552Z,100581.22
2023-06-22T02:36:58.067Z,100587.09
2023-06-22T02:39:27.027Z,100588.22
2023-06-22T02:41:57.704Z,100578.09
2023-06-22T02:44:26.503Z,100589.69
2023-06-22T02:46:55.757Z,100598.59
2023-06-22T02:49:24.640Z,100605.66
2023-06-22T02:51:56.596Z,100599.06
2023-06-22T02:54:25.320Z,100602.56
2023-06-22T02:56:53.875Z,100607.72
2023-06-22T02:59:25.116Z,100596.84
2023-06-22T03:01:54.606Z,100606.69
2023-06-22T03:04:23.572Z,100617.69
2023-06-22T03:06:52.708Z,100611.53
2023-06-22T03:09:22.814Z,100607.50
2023-06-22T03:11:51.407Z,100604.81
2023-06-22T03:14:19.788Z,100609.75
2023-06-22T03:16:49.118Z,100609.88
2023-06-22T03:19:17.957Z,100615.34
2023-06-22T03:21:46.365Z,100618.88
2023-06-22T03:24:14.836Z,100610.66
2023-06-22T03:26:47.623Z,100617.28
2023-06-22T03:29:16.990Z,100620.03
2023-06-22T03:31:45.437Z,100618.06
2023-06-22T03:34:13.873Z,100626.56
2023-06-22T03:36:42.348Z,100620.19
2023-06-22T03:39:10.745Z,100623.91
2023-06-22T03:41:39.481Z,100619.47
2023-06-22T03:44:11.794Z,100627.41
2023-06-22T03:46:40.218Z,100636.38
2023-06-22T03:49:09.027Z,100634.94
2023-06-22T03:51:37.447Z,100630.47
2023-06-22T03:54:05.918Z,100635.28
2023-06-22T03:56:34.372Z,100642.28
2023-06-22T03:59:02.792Z,100638.44
2023-06-22T04:01:34.887Z,100641.25
2023-06-22T04:04:03.548Z,100641.56
2023-06-22T04:06:32.095Z,100631.00
2023-06-22T04:09:02.068Z,100635.69
2023-06-22T04:11:30.559Z,100646.63
2023-06-22T04:13:59.092Z,100633.34
2023-06-22T04:16:27.847Z,100639.63
2023-06-22T04:18:57.625Z,100651.31
2023-06-22T04:21:26.062Z,100648.56
2023-06-22T04:23:54.814Z,100637.81
2023-06-22T04:26:23.254Z,100640.28
2023-06-22T04:28:52.927Z,100653.53
2023-06-22T04:31:21.608Z,100648.41
2023-06-22T04:33:52.687Z,100646.44
2023-06-22T04:36:24.025Z,100658.19
2023-06-22T04:38:53.941Z,100659.00
2023-06-22T04:41:25.398Z,100656.69
2023-06-22T04:43:55.286Z,100665.09
2023-06-22T04:46:24.255Z,100658.91
2023-06-22T04:48:52.754Z,100670.03
2023-06-22T04:51:22.958Z,100673.47
2023-06-22T04:53:51.507Z,100677.00
2023-06-22T04:56:22.834Z,100680.44
2023-06-22T04:58:52.868Z,100681.06
2023-06-22T05:01:23.327Z,100678.25
2023-06-22T05:03:52.155Z,100684.72
2023-06-22T05:06:22.170Z,100672.59
2023-06-22T05:08:52.071Z,100674.66
2023-06-22T05:11:21.221Z,100673.38
2023-06-22T05:13:49.661Z,100677.69
2023-06-22T05:16:18.242Z,100680.69
2023-06-22T05:18:46.677Z,100679.19
2023-06-22T05:21:15.151Z,100689.03
2023-06-22T05:23:44.912Z,100688.44
2023-06-22T05:26:13.442Z,100684.44
2023-06-22T05:28:41.791Z,100684.16
2023-06-22T05:31:10.664Z,100695.78
2023-06-22T05:33:39.037Z,100690.75
2023-06-22T05:36:07.964Z,100682.03
2023-06-22T05:38:36.875Z,100678.06
2023-06-22T05:41:07.041Z,100689.09
2023-06-22T05:43:35.527Z,100688.47
2023-06-22T05:46:05.031Z,100680.19
2023-06-22T05:48:33.462Z,100676.97
2023-06-22T05:51:01.986Z,100676.94
2023-06-22T05:53:30.372Z,100683.22
2023-06-22T05:55:58.725Z,100674.94
2023-06-22T05:58:28.477Z,100667.72
2023-06-22T06:00:57.265Z,100669.56
2023-06-22T06:03:25.728Z,100673.28
2023-06-22T06:05:54.093Z,100677.28
2023-06-22T06:08:22.954Z,100670.03
2023-06-22T06:10:51.537Z,100666.91
2023-06-22T06:13:19.912Z,100680.56
2023-06-22T06:15:49.650Z,100674.72
2023-06-22T06:18:18.006Z,100668.03
2023-06-22T06:20:46.376Z,100677.09
2023-06-22T06:23:14.794Z,100677.88
2023-06-22T06:25:43.224Z,100678.41
2023-06-22T06:28:11.834Z,100671.31
2023-06-22T06:30:40.123Z,100671.28
2023-06-22T06:33:10.241Z,100675.78
2023-06-22T06:35:38.958Z,100675.41
2023-06-22T06:38:07.505Z,100666.13
2023-06-22T06:40:36.263Z,100674.59
2023-06-22T06:43:04.660Z,100672.53
2023-06-22T06:45:34.438Z,100670.28
2023-06-22T06:48:03.064Z,100678.81
2023-06-22T06:50:33.298Z,100671.88
2023-06-22T06:53:02.215Z,100678.81
2023-06-22T06:55:34.234Z,100684.75
2023-06-22T06:58:03.130Z,100679.25
2023-06-22T07:00:31.880Z,100683.22
2023-06-22T07:03:00.792Z,100679.03
2023-06-22T07:05:29.121Z,100693.03
2023-06-22T07:07:58.953Z,100686.38
2023-06-22T07:10:27.791Z,100683.78
2023-06-22T07:12:58.469Z,100693.81
2023-06-22T07:15:26.943Z,100696.69
2023-06-22T07:17:56.020Z,100699.94
2023-06-22T07:20:24.450Z,100690.00
2023-06-22T07:22:54.012Z,100697.50
2023-06-22T07:25:23.752Z,100696.97
2023-06-22T07:28:00.672Z,100699.09
2023-06-22T07:30:29.528Z,100693.19
2023-06-22T07:32:59.369Z,100685.00
2023-06-22T07:35:27.771Z,100689.19
2023-06-22T07:37:56.749Z,100694.06
2023-06-22T07:40:27.366Z,100701.88
2023-06-22T07:43:01.488Z,100691.78
2023-06-22T07:45:29.879Z,100711.78
2023-06-22T07:47:58.273Z,100706.38
2023-06-22T07:50:26.960Z,100707.50
2023-06-22T07:53:00.778Z,100706.97
2023-06-22T07:55:30.743Z,100700.91
2023-06-22T07:57:59.326Z,100702.44
2023-06-22T08:00:27.813Z,100704.25
2023-06-22T08:02:56.301Z,100707.75
2023-06-22T08:05:24.678Z,100710.31
2023-06-22T08:07:53.089Z,100707.50
2023-06-22T08:10:21.886Z,100701.88
2023-06-22T08:12:52.981Z,100699.81
2023-06-22T08:15:21.479Z,100700.66
2023-06-22T08:17:50.061Z,100709.22
2023-06-22T08:20:18.641Z,100700.81
2023-06-22T08:22:47.198Z,100716.06
2023-06-22T08:25:15.713Z,100704.53
2023-06-22T08:27:47.682Z,100713.94
2023-06-22T08:30:18.035Z,100716.50
2023-06-22T08:32:46.453Z,100703.91
2023-06-22T08:35:14.892Z,100713.22
2023-06-22T08:37:43.318Z,100713.59
2023-06-22T08:40:12.861Z,100719.59
2023-06-22T08:42:43.112Z,100715.94
2023-06-22T08:45:12.834Z,100713.09
2023-06-22T08:47:43.642Z,100706.22
2023-06-22T08:50:13.236Z,100704.31
2023-06-22T08:52:43.563Z,100715.75
2023-06-22T08:55:12.410Z,100714.03
2023-06-22T08:57:41.212Z,100715.06
2023-06-22T09:00:21.388Z,100716.00
2023-06-22T09:02:51.671Z,100711.66
2023-06-22T09:05:20.388Z,100707.63
2023-06-22T09:07:48.780Z,100706.25
2023-06-22T09:10:17.220Z,100704.59
2023-06-22T09:12:45.981Z,100706.16
2023-06-22T09:15:17.490Z,100713.84
2023-06-22T09:17:49.007Z,100715.88
2023-06-22T09:20:19.973Z,100724.09
2023-06-22T09:22:48.506Z,100724.50
2023-06-22T09:25:17.017Z,100725.69
2023-06-22T09:27:45.421Z,100726.03
2023-06-22T09:30:14.540Z,100738.16
2023-06-22T09:32:43.556Z,100732.22
2023-06-22T09:35:14.176Z,100733.25
2023-06-22T09:37:44.168Z,100715.50
2023-06-22T09:40:14.612Z,100720.28
2023-06-22T09:42:44.350Z,100721.84
2023-06-22T09:45:13.027Z,100719.50
2023-06-22T09:47:44.156Z,100721.25
2023-06-22T09:50:13.252Z,100724.34
2023-06-22T09:52:48.471Z,100730.72
2023-06-22T09:55:19.184Z,100736.81
2023-06-22T09:57:47.637Z,100732.09
2023-06-22T10:00:17.678Z,100735.78
2023-06-22T10:02:46.654Z,100739.34
2023-06-22T10:05:18.574Z,100733.22
2023-06-22T10:07:47.467Z,100734.75
2023-06-22T10:13:00.596Z,100739.59
2023-06-22T10:15:29.611Z,100733.81
2023-06-22T10:17:58.408Z,100736.56
2023-06-22T10:20:27.859Z,100730.94
2023-06-22T10:22:58.809Z,100739.13
2023-06-22T10:25:29.087Z,100736.53
2023-06-22T10:27:59.630Z,100735.47
2023-06-22T10:30:30.130Z,100732.09
2023-06-22T10:32:58.605Z,100737.97
2023-06-22T10:35:27.151Z,100738.47
2023-06-22T10:37:57.451Z,100746.03
2023-06-22T10:40:25.925Z,100737.41
2023-06-22T10:42:54.319Z,100740.53
2023-06-22T10:45:24.187Z,100733.50
2023-06-22T10:47:52.700Z,100730.94
2023-06-22T10:50:21.915Z,100733.88
2023-06-22T10:52:52.427Z,100731.28
2023-06-22T10:55:21.009Z,100724.22
2023-06-22T10:57:51.083Z,100721.13
2023-06-22T11:00:20.118Z,100730.16
2023-06-22T11:02:50.460Z,100738.34
2023-06-22T11:05:18.970Z,100731.44
2023-06-22T11:07:47.495Z,100727.19
2023-06-22T11:10:16.466Z,100728.75
2023-06-22T11:12:45.014Z,100713.78
2023-06-22T11:15:15.810Z,100724.03
2023-06-22T11:17:44.252Z,100722.19
2023-06-22T11:20:14.754Z,100719.78
2023-06-22T11:22:43.766Z,100722.72
2023-06-22T11:25:13.627Z,100730.94
2023-06-22T11:27:42.181Z,100728.06
2023-06-22T11:30:12.041Z,100735.59
2023-06-22T11:32:40.622Z,100723.88
2023-06-22T11:35:12.792Z,100724.69
2023-06-22T11:37:44.026Z,100728.38
2023-06-22T11:40:16.025Z,100724.38
2023-06-22T11:42:44.548Z,100728.19
2023-06-22T11:45:14.626Z,100719.00
2023-06-22T11:47:43.179Z,100726.00
2023-06-22T11:50:12.158Z,100725.66
2023-06-22T11:52:42.017Z,100719.50
2023-06-22T11:55:10.620Z,100726.41
2023-06-22T11:57:40.082Z,100719.50
2023-06-22T12:00:18.267Z,100717.16
2023-06-22T12:02:47.697Z,100727.50
2023-06-22T12:05:16.376Z,100717.59
2023-06-22T12:07:46.488Z,100715.66
2023-06-22T12:10:15.010Z,100712.97
2023-06-22T12:12:43.686Z,100711.81
2023-06-22T12:15:13.541Z,100716.41
2023-06-22T12:17:42.668Z,100717.66
2023-06-22T12:20:12.405Z,100719.72
2023-06-22T12:22:40.877Z,100716.25
2023-06-22T12:25:11.457Z,100712.84
2023-06-22T12:27:40.446Z,100709.78
2023-06-22T12:30:11.496Z,100710.94
2023-06-22T12:32:40.177Z,100713.91
2023-06-22T12:35:14.877Z,100714.72
2023-06-22T12:37:44.133Z,100712.69
2023-06-22T12:40:14.732Z,100705.25
2023-06-22T12:42:43.706Z,100703.44
2023-06-22T12:45:12.852Z,100700.47
2023-06-22T12:47:41.641Z,100711.63
2023-06-22T12:50:10.733Z,100710.00
2023-06-22T12:52:42.271Z,100707.38
2023-06-22T12:55:11.324Z,100712.06
2023-06-22T12:57:41.234Z,100707.75
2023-06-22T13:00:11.373Z,100706.84
2023-06-22T13:02:39.911Z,100701.50
2023-06-22T13:05:09.029Z,100703.75
2023-06-22T13:07:37.430Z,100705.22
2023-06-22T13:10:06.719Z,100707.38
2023-06-22T13:12:35.214Z,100714.56
2023-06-22T13:15:05.410Z,100713.78
2023-06-22T13:17:33.851Z,100710.22
2023-06-22T13:20:02.406Z,100707.94
2023-06-22T13:22:32.969Z,100709.00
2023-06-22T13:25:03.446Z,100705.56
2023-06-22T13:27:32.029Z,100706.53
2023-06-22T13:30:01.950Z,100700.59
2023-06-22T13:32:31.977Z,100695.53
2023-06-22T13:35:02.507Z,100692.63
2023-06-22T13:37:32.148Z,100688.25
2023-06-22T13:40:00.949Z,100697.19
2023-06-22T13:42:29.586Z,100699.06
2023-06-22T13:44:58.103Z,100699.91
2023-06-22T13:47:27.875Z,100691.81
2023-06-22T13:50:00.323Z,100706.75
2023-06-22T13:52:41.206Z,100692.94
2023-06-22T13:55:11.005Z,100690.41
2023-06-22T13:57:39.833Z,100688.09
2023-06-22T14:00:10.738Z,100690.19
2023-06-22T14:02:39.294Z,100689.03
2023-06-22T14:05:10.146Z,100685.69
2023-06-22T14:07:38.696Z,100690.50
2023-06-22T14:10:08.070Z,100685.66
2023-06-22T14:12:36.387Z,100689.31
2023-06-22T14:15:05.199Z,100693.97
2023-06-22T14:17:34.245Z,100682.03
2023-06-22T14:20:02.927Z,100696.09
2023-06-22T14:22:32.826Z,100686.41
2023-06-22T14:25:02.700Z,100682.56
2023-06-22T14:27:31.132Z,100686.22
2023-06-22T14:29:59.548Z,100684.78
2023-06-22T14:32:31.000Z,100677.69
2023-06-22T14:34:59.401Z,100671.53
2023-06-22T14:37:28.326Z,100667.63
2023-06-22T14:39:58.231Z,100671.44
2023-06-22T14:42:32.207Z,100680.09
2023-06-22T14:45:00.586Z,100682.63
2023-06-22T14:47:30.614Z,100687.75
2023-06-22T14:49:59.183Z,100685.00
2023-06-22T14:52:28.421Z,100684.41
2023-06-22T14:54:58.651Z,100689.44
2023-06-22T14:57:27.248Z,100671.09
2023-06-22T14:59:56.606Z,100669.94
2023-06-22T15:02:25.714Z,100673.44
2023-06-22T15:04:54.456Z,100673.91
2023-06-22T15:07:22.787Z,100676.28
2023-06-22T15:09:51.413Z,100680.47
2023-06-22T15:12:21.194Z,100665.66
2023-06-22T15:14:49.539Z,100668.25
2023-06-22T15:17:17.877Z,100664.22
2023-06-22T15:19:46.194Z,100666.28
2023-06-22T15:22:17.887Z,100675.03
2023-06-22T15:24:46.820Z,100674.69
2023-06-22T15:27:16.982Z,100670.81
2023-06-22T15:29:46.849Z,100675.13
2023-06-22T15:32:15.139Z,100684.09
2023-06-22T15:34:43.581Z,100685.66
2023-06-22T15:37:13.248Z,100687.22
2023-06-22T15:39:43.884Z,100681.78
2023-06-22T15:42:12.887Z,100675.13
2023-06-22T15:44:41.514Z,100680.19
2023-06-22T15:47:11.497Z,100688.75
2023-06-22T15:49:40.064Z,100681.34
2023-06-22T15:52:08.764Z,100676.28
2023-06-22T15:54:37.206Z,100679.44
2023-06-22T15:57:05.862Z,100678.25
2023-06-22T15:59:34.350Z,100684.13
2023-06-22T16:02:02.933Z,100679.88
2023-06-22T16:04:32.805Z,100679.47
2023-06-22T16:07:01.341Z,100679.09
2023-06-22T16:09:30.874Z,100682.59
2023-06-22T16:11:59.773Z,100688.91
2023-06-22T16:14:28.166Z,100686.56
2023-06-22T16:16:56.510Z,100687.34
2023-06-22T16:19:25.284Z,100692.00
2023-06-22T16:21:56.233Z,100696.69
2023-06-22T16:24:24.687Z,100699.78
2023-06-22T16:26:53.292Z,100702.16
2023-06-22T16:29:21.708Z,100694.25
2023-06-22T16:31:52.459Z,100697.84
2023-06-22T16:34:21.447Z,100704.88
2023-06-22T16:36:52.328Z,100700.97
2023-06-22T16:39:23.142Z,100706.81
2023-06-22T16:41:51.824Z,100709.19
2023-06-22T16:44:20.288Z,100712.31
2023-06-22T16:46:48.800Z,100710.75
2023-06-22T16:49:17.299Z,100710.38
2023-06-22T16:51:47.980Z,100714.28
2023-06-22T16:54:16.738Z,100717.00
2023-06-22T16:56:48.315Z,100712.75
2023-06-22T16:59:17.285Z,100716.66
2023-06-22T17:01:53.913Z,100728.41
2023-06-22T17:04:24.870Z,100717.06
2023-06-22T17:06:59.651Z,100717.06
2023-06-22T17:09:29.568Z,100719.44
2023-06-22T17:12:03.403Z,100713.94
2023-06-22T17:14:31.779Z,100719.81
2023-06-22T17:17:01.689Z,100715.91
2023-06-22T17:19:30.252Z,100721.00
2023-06-22T17:22:00.417Z,100726.47
2023-06-22T17:24:29.281Z,100720.97
2023-06-22T17:27:00.860Z,100713.91
2023-06-22T17:29:34.153Z,100721.34
2023-06-22T17:32:03.879Z,100718.97
2023-06-22T17:34:33.536Z,100711.16
2023-06-22T17:37:02.482Z,100717.00
2023-06-22T17:39:31.312Z,100716.84
2023-06-22T17:42:01.102Z,100717.63
2023-06-22T17:44:30.710Z,100710.50
2023-06-22T17:47:00.613Z,100718.56
2023-06-22T17:49:30.483Z,100715.72
2023-06-22T17:51:59.094Z,100710.09
2023-06-22T17:54:39.306Z,100708.50
2023-06-22T17:57:19.990Z,100713.59
2023-06-22T17:59:51.581Z,100712.75
2023-06-22T18:02:25.077Z,100711.91
2023-06-22T18:04:58.815Z,100710.69
2023-06-22T18:07:29.242Z,100715.47
2023-06-22T18:09:58.923Z,100713.56
2023-06-22T18:12:29.872Z,100717.81
2023-06-22T18:14:58.754Z,100718.13
2023-06-22T18:17:27.761Z,100716.56
2023-06-22T18:20:00.779Z,100719.28
2023-06-22T18:22:30.545Z,100727.84
2023-06-22T18:24:59.611Z,100732.47
2023-06-22T18:27:30.597Z,100727.34
2023-06-22T18:30:00.010Z,100730.09
2023-06-22T18:32:30.632Z,100734.41
2023-06-22T18:34:59.402Z,100744.94
2023-06-22T18:37:32.314Z,100749.59
2023-06-22T18:40:01.355Z,100754.31
2023-06-22T18:42:32.176Z,100757.38
2023-06-22T18:45:00.571Z,100754.97
2023-06-22T18:47:30.264Z,100751.16
2023-06-22T18:50:08.856Z,100756.09
2023-06-22T18:52:39.516Z,100766.13
2023-06-22T18:55:13.645Z,100760.75
2023-06-22T18:57:44.430Z,100759.56
2023-06-22T19:00:18.423Z,100767.25
2023-06-22T19:02:48.846Z,100771.50
2023-06-22T19:05:20.412Z,100770.38
2023-06-22T19:07:59.875Z,100769.16
2023-06-22T19:10:31.049Z,100784.97
2023-06-22T19:13:20.605Z,100777.16
2023-06-22T19:15:53.349Z,100787.34
2023-06-22T19:18:23.078Z,100784.25
2023-06-22T19:20:55.269Z,100788.97
2023-06-22T19:23:31.420Z,100783.94
2023-06-22T19:26:01.930Z,100781.66
2023-06-22T19:28:33.479Z,100787.03
2023-06-22T19:31:03.470Z,100785.03
2023-06-22T19:33:33.847Z,100784.63
2023-06-22T19:36:04.105Z,100783.88
2023-06-22T19:38:34.223Z,100781.81
2023-06-22T19:41:03.376Z,100778.72
2023-06-22T19:43:33.695Z,100781.78
2023-06-22T19:46:02.498Z,100785.66
2023-06-22T19:48:32.294Z,100786.41
2023-06-22T19:51:05.959Z,100786.75
2023-06-22T19:53:34.636Z,100780.13
2023-06-22T19:56:03.258Z,100786.75
2023-06-22T19:58:36.666Z,100775.03
2023-06-22T20:01:05.244Z,100773.84
2023-06-22T20:03:34.875Z,100777.72
2023-06-22T20:06:13.570Z,100777.31
2023-06-22T20:08:48.211Z,100773.00
2023-06-22T20:11:17.564Z,100772.97
2023-06-22T20:13:50.900Z,100780.69
2023-06-22T20:16:20.441Z,100781.44
2023-06-22T20:18:51.970Z,100780.19
2023-06-22T20:21:20.541Z,100778.22
2023-06-22T20:23:48.988Z,100777.03
2023-06-22T20:26:19.103Z,100783.66
2023-06-22T20:28:48.303Z,100784.78
2023-06-22T20:31:19.236Z,100775.41
2023-06-22T20:33:47.670Z,100778.03
2023-06-22T20:36:18.064Z,100776.84
2023-06-22T20:38:47.032Z,100779.56
2023-06-22T20:41:17.701Z,100773.75
2023-06-22T20:43:46.240Z,100772.56
2023-06-22T20:46:14.869Z,100779.19
2023-06-22T20:48:45.712Z,100783.84
2023-06-22T20:51:13.997Z,100772.94
2023-06-22T20:53:42.263Z,100785.38
2023-06-22T20:56:10.560Z,100774.41
2023-06-22T20:58:38.965Z,100783.81
2023-06-22T21:01:07.564Z,100775.16
2023-06-22T21:03:36.719Z,100777.06
2023-06-22T21:06:06.877Z,100780.06
2023-06-22T21:08:35.221Z,100782.75
2023-06-22T21:11:03.718Z,100773.41
2023-06-22T21:13:33.616Z,100772.22
2023-06-22T21:16:02.143Z,100768.28
2023-06-22T21:18:36.543Z,100761.69
2023-06-22T21:21:06.893Z,100760.50
2023-06-22T21:23:35.655Z,100762.81
2023-06-22T21:26:04.197Z,100755.44
2023-06-22T21:28:33.540Z,100752.28
2023-06-22T21:31:02.391Z,100748.31
2023-06-22T21:33:31.271Z,100747.09
2023-06-22T21:35:59.745Z,100746.28
2023-06-22T21:38:29.841Z,100751.66
2023-06-22T21:40:58.261Z,100747.78
2023-06-22T21:43:26.644Z,100752.09
2023-06-22T21:45:55.066Z,100748.53
2023-06-22T21:48:23.548Z,100749.25
2023-06-22T21:50:51.849Z,100745.72
2023-06-22T21:53:20.112Z,100741.44
2023-06-22T21:55:50.037Z,100739.50
2023-06-22T21:58:19.121Z,100742.19
2023-06-22T22:00:47.636Z,100740.59
2023-06-22T22:03:16.078Z,100748.09
2023-06-22T22:05:46.782Z,100739.88
2023-06-22T22:08:15.524Z,100737.50
2023-06-22T22:10:46.573Z,100742.19
2023-06-22T22:13:17.071Z,100731.22
2023-06-22T22:15:50.233Z,100729.72
2023-06-22T22:18:18.841Z,100728.13
2023-06-22T22:20:47.274Z,100733.53
2023-06-22T22:23:15.677Z,100730.75
2023-06-22T22:25:44.201Z,100735.03
2023-06-22T22:28:12.700Z,100732.69
2023-06-22T22:30:43.777Z,100731.13
2023-06-22T22:33:12.337Z,100735.41
2023-06-22T22:35:42.181Z,100738.06
2023-06-22T22:38:10.649Z,100733.00
2023-06-22T22:40:39.383Z,100740.34
2023-06-22T22:43:07.822Z,100743.44
2023-06-22T22:45:36.538Z,100738.44
2023-06-22T22:48:07.796Z,100728.75
2023-06-22T22:50:37.176Z,100731.47
2023-06-22T22:53:06.369Z,100733.72
2023-06-22T22:55:37.028Z,100726.69
2023-06-22T22:58:06.250Z,100723.63
2023-06-22T23:00:34.538Z,100727.91
2023-06-22T23:03:03.550Z,100723.25
2023-06-22T23:05:33.573Z,100717.75
2023-06-22T23:08:05.002Z,100720.94
2023-06-22T23:10:33.338Z,100721.78
2023-06-22T23:13:02.345Z,100712.53
2023-06-22T23:15:31.336Z,100709.16
2023-06-22T23:18:00.201Z,100711.53
2023-06-22T23:20:31.492Z,100712.59
2023-06-22T23:23:01.635Z,100715.94
2023-06-22T23:25:30.536Z,100712.97
2023-06-22T23:27:59.349Z,100713.78
2023-06-22T23:30:29.418Z,100712.50
2023-06-22T23:32:58.815Z,100720.59
2023-06-22T23:35:27.546Z,100721.03
2023-06-22T23:37:56.065Z,100719.81
2023-06-22T23:40:25.925Z,100718.66
2023-06-22T23:42:54.292Z,100722.59
2023-06-22T23:45:22.994Z,100717.69
2023-06-22T23:47:52.260Z,100716.97
2023-06-22T23:50:21.222Z,100705.47
2023-06-22T23:52:50.887Z,100707.31
2023-06-22T23:55:24.951Z,100711.50
2023-06-22T23:57:57.879Z,100717.28
